Whispering Oaks, Illinois
Current Conditions -  °F | °C
As of 4:54 PM on Saturday 20 Dec 2014 (Local Time) from KPIA Reporting Station
Overcast Overcast  
Wind Chill: 30°   Ceiling: 4100
Heat Index: 35°   Visibility: 8mi
Dew Point: 27°   Wind: 6mph
Humidity: 72%   Direction: 140°SE
Pressure: 30.24"   Gusts: NA
Location:  40.5996°N, 89.5548°W
Report Text: KPIA 202254Z 14005KT 8SM OVC041 02/M03 A3024 RMK AO2 SLP247 T00171028
Loading
Personal Weather Stations






























Interactive Weather Map New forecast layout! Learn more

10-Day Weather Forecast

Advertisements
Track Severe Weather on mobile